SARC/CNQ METAR and TAF weather

Enter ICAO airport designator
Station Type Date Time Source
SARC METAR 2020/08/15 16:00 UTC NOAA

SARC 151600Z 16010KT 8000 BKN025 16/10 Q1012


Station Type Date Time Source
SARC Decoded METAR 2020/08/15 16:00 UTC NOAA

Corrientes Aero., Argentina (SARC) 27-27S 058-46W 62M
Aug 15, 2020 - 12:00 PM EDT / 2020.08.15 1600 UTC
Wind: from the SSE (160 degrees) at 12 MPH (10 KT):0
Visibility: 4 mile(s):0
Sky conditions: mostly cloudy
Temperature: 60 F (16 C)
Dew Point: 50 F (10 C)
Relative Humidity: 67%
Pressure (altimeter): 29.88 in. Hg (1012 hPa)
ob: SARC 151600Z 16010KT 8000 BKN025 16/10 Q1012
cycle: 16

Station Type Date Time Source
SARC TAF 2020/07/23 10:23 UTC NOAA

TAF
AMD SARC 230915Z 2310/2406 20005KT 6000 OVC018 TX25/2319Z TN13/2410Z

Example: see airport list